sensor_id;sensor_type;location;lat;lon;timestamp;P1;durP1;ratioP1;P2;durP2;ratioP2
7939;SDS011;4015;48.888;9.226;2023-12-20T00:00:58;1.80;;;1.50;;
7939;SDS011;4015;48.888;9.226;2023-12-20T00:03:24;2.05;;;1.83;;
7939;SDS011;4015;48.888;9.226;2023-12-20T00:05:49;2.03;;;1.90;;
7939;SDS011;4015;48.888;9.226;2023-12-20T00:08:15;2.13;;;1.85;;
7939;SDS011;4015;48.888;9.226;2023-12-20T00:10:40;1.80;;;1.63;;
7939;SDS011;4015;48.888;9.226;2023-12-20T00:13:05;2.00;;;1.80;;
7939;SDS011;4015;48.888;9.226;2023-12-20T00:15:32;1.65;;;1.55;;
7939;SDS011;4015;48.888;9.226;2023-12-20T00:17:57;1.63;;;1.52;;
7939;SDS011;4015;48.888;9.226;2023-12-20T00:20:23;1.98;;;1.80;;
7939;SDS011;4015;48.888;9.226;2023-12-20T00:22:48;2.05;;;1.80;;
7939;SDS011;4015;48.888;9.226;2023-12-20T00:25:13;1.83;;;1.73;;
7939;SDS011;4015;48.888;9.226;2023-12-20T00:27:38;2.03;;;1.80;;
7939;SDS011;4015;48.888;9.226;2023-12-20T00:30:04;1.80;;;1.70;;
7939;SDS011;4015;48.888;9.226;2023-12-20T00:32:30;1.70;;;1.55;;
7939;SDS011;4015;48.888;9.226;2023-12-20T00:34:55;2.00;;;1.80;;
7939;SDS011;4015;48.888;9.226;2023-12-20T00:37:21;1.92;;;1.77;;
7939;SDS011;4015;48.888;9.226;2023-12-20T00:39:46;2.15;;;1.95;;
7939;SDS011;4015;48.888;9.226;2023-12-20T00:42:11;2.05;;;1.85;;
7939;SDS011;4015;48.888;9.226;2023-12-20T00:44:37;1.98;;;1.77;;
7939;SDS011;4015;48.888;9.226;2023-12-20T00:47:02;1.88;;;1.77;;
7939;SDS011;4015;48.888;9.226;2023-12-20T00:49:29;1.48;;;1.38;;
7939;SDS011;4015;48.888;9.226;2023-12-20T00:51:54;2.17;;;1.98;;
7939;SDS011;4015;48.888;9.226;2023-12-20T00:54:19;1.92;;;1.60;;
7939;SDS011;4015;48.888;9.226;2023-12-20T00:56:44;1.75;;;1.65;;
7939;SDS011;4015;48.888;9.226;2023-12-20T00:59:10;1.85;;;1.70;;
7939;SDS011;4015;48.888;9.226;2023-12-20T01:01:35;1.73;;;1.63;;
7939;SDS011;4015;48.888;9.226;2023-12-20T01:04:01;1.90;;;1.73;;
7939;SDS011;4015;48.888;9.226;2023-12-20T01:06:26;2.13;;;1.92;;
7939;SDS011;4015;48.888;9.226;2023-12-20T01:08:51;1.90;;;1.70;;
7939;SDS011;4015;48.888;9.226;2023-12-20T01:11:17;2.00;;;1.80;;
7939;SDS011;4015;48.888;9.226;2023-12-20T01:13:42;1.92;;;1.83;;
7939;SDS011;4015;48.888;9.226;2023-12-20T01:16:10;2.20;;;2.00;;
7939;SDS011;4015;48.888;9.226;2023-12-20T01:18:36;1.73;;;1.63;;
7939;SDS011;4015;48.888;9.226;2023-12-20T01:21:02;2.00;;;1.85;;
7939;SDS011;4015;48.888;9.226;2023-12-20T01:23:28;1.75;;;1.65;;
7939;SDS011;4015;48.888;9.226;2023-12-20T01:25:54;1.77;;;1.67;;
7939;SDS011;4015;48.888;9.226;2023-12-20T01:28:19;1.70;;;1.60;;
7939;SDS011;4015;48.888;9.226;2023-12-20T01:30:45;1.92;;;1.80;;
7939;SDS011;4015;48.888;9.226;2023-12-20T01:33:10;1.70;;;1.60;;
7939;SDS011;4015;48.888;9.226;2023-12-20T01:35:35;2.08;;;1.88;;
7939;SDS011;4015;48.888;9.226;2023-12-20T01:38:01;1.83;;;1.73;;
7939;SDS011;4015;48.888;9.226;2023-12-20T01:40:26;1.98;;;1.77;;
7939;SDS011;4015;48.888;9.226;2023-12-20T01:43:01;1.73;;;1.63;;
7939;SDS011;4015;48.888;9.226;2023-12-20T01:45:31;2.17;;;1.98;;
7939;SDS011;4015;48.888;9.226;2023-12-20T01:47:57;1.77;;;1.67;;
7939;SDS011;4015;48.888;9.226;2023-12-20T01:50:23;1.73;;;1.63;;
7939;SDS011;4015;48.888;9.226;2023-12-20T01:52:49;1.98;;;1.77;;
7939;SDS011;4015;48.888;9.226;2023-12-20T01:55:17;1.80;;;1.70;;
7939;SDS011;4015;48.888;9.226;2023-12-20T01:57:44;1.90;;;1.80;;
7939;SDS011;4015;48.888;9.226;2023-12-20T02:00:10;1.42;;;1.33;;
7939;SDS011;4015;48.888;9.226;2023-12-20T02:02:38;1.67;;;1.50;;
7939;SDS011;4015;48.888;9.226;2023-12-20T02:05:07;2.08;;;1.55;;
7939;SDS011;4015;48.888;9.226;2023-12-20T02:07:33;1.70;;;1.60;;
7939;SDS011;4015;48.888;9.226;2023-12-20T02:10:02;1.67;;;1.58;;
7939;SDS011;4015;48.888;9.226;2023-12-20T02:12:28;1.60;;;1.50;;
7939;SDS011;4015;48.888;9.226;2023-12-20T02:14:53;1.60;;;1.50;;
7939;SDS011;4015;48.888;9.226;2023-12-20T02:17:19;2.13;;;1.88;;
7939;SDS011;4015;48.888;9.226;2023-12-20T02:19:45;1.60;;;1.50;;
7939;SDS011;4015;48.888;9.226;2023-12-20T02:22:10;1.63;;;1.52;;
7939;SDS011;4015;48.888;9.226;2023-12-20T02:24:36;1.80;;;1.70;;
7939;SDS011;4015;48.888;9.226;2023-12-20T02:27:02;1.50;;;1.40;;
7939;SDS011;4015;48.888;9.226;2023-12-20T02:29:30;1.63;;;1.52;;
7939;SDS011;4015;48.888;9.226;2023-12-20T02:31:55;1.92;;;1.67;;
7939;SDS011;4015;48.888;9.226;2023-12-20T02:34:22;1.70;;;1.60;;
7939;SDS011;4015;48.888;9.226;2023-12-20T02:36:47;1.75;;;1.65;;
7939;SDS011;4015;48.888;9.226;2023-12-20T02:39:12;1.70;;;1.60;;
7939;SDS011;4015;48.888;9.226;2023-12-20T02:41:38;1.80;;;1.60;;
7939;SDS011;4015;48.888;9.226;2023-12-20T02:44:03;1.80;;;1.70;;
7939;SDS011;4015;48.888;9.226;2023-12-20T02:46:29;2.10;;;1.85;;
7939;SDS011;4015;48.888;9.226;2023-12-20T02:48:54;1.70;;;1.60;;
7939;SDS011;4015;48.888;9.226;2023-12-20T02:51:19;1.85;;;1.70;;
7939;SDS011;4015;48.888;9.226;2023-12-20T02:53:45;1.73;;;1.63;;
7939;SDS011;4015;48.888;9.226;2023-12-20T02:56:10;2.00;;;1.77;;
7939;SDS011;4015;48.888;9.226;2023-12-20T02:58:35;1.95;;;1.70;;
7939;SDS011;4015;48.888;9.226;2023-12-20T03:01:00;1.77;;;1.58;;
7939;SDS011;4015;48.888;9.226;2023-12-20T03:03:26;1.95;;;1.77;;
7939;SDS011;4015;48.888;9.226;2023-12-20T03:05:51;1.80;;;1.70;;
7939;SDS011;4015;48.888;9.226;2023-12-20T03:08:16;2.30;;;1.80;;
7939;SDS011;4015;48.888;9.226;2023-12-20T03:10:42;2.05;;;1.70;;
7939;SDS011;4015;48.888;9.226;2023-12-20T03:13:07;2.13;;;1.92;;
7939;SDS011;4015;48.888;9.226;2023-12-20T03:15:32;1.65;;;1.38;;
7939;SDS011;4015;48.888;9.226;2023-12-20T03:17:57;1.88;;;1.75;;
7939;SDS011;4015;48.888;9.226;2023-12-20T03:20:24;1.60;;;1.50;;
7939;SDS011;4015;48.888;9.226;2023-12-20T03:22:51;1.70;;;1.60;;
7939;SDS011;4015;48.888;9.226;2023-12-20T03:25:16;1.63;;;1.52;;
7939;SDS011;4015;48.888;9.226;2023-12-20T03:27:41;1.52;;;1.42;;
7939;SDS011;4015;48.888;9.226;2023-12-20T03:30:07;1.75;;;1.58;;
7939;SDS011;4015;48.888;9.226;2023-12-20T03:32:32;1.42;;;1.33;;
7939;SDS011;4015;48.888;9.226;2023-12-20T03:34:58;1.70;;;1.60;;
7939;SDS011;4015;48.888;9.226;2023-12-20T03:37:23;1.40;;;1.30;;
7939;SDS011;4015;48.888;9.226;2023-12-20T03:39:49;1.77;;;1.48;;
7939;SDS011;4015;48.888;9.226;2023-12-20T03:42:14;1.40;;;1.30;;
7939;SDS011;4015;48.888;9.226;2023-12-20T03:44:39;1.35;;;1.25;;
7939;SDS011;4015;48.888;9.226;2023-12-20T03:47:05;1.50;;;1.40;;
7939;SDS011;4015;48.888;9.226;2023-12-20T03:49:31;1.40;;;1.30;;
7939;SDS011;4015;48.888;9.226;2023-12-20T03:51:56;1.48;;;1.38;;
7939;SDS011;4015;48.888;9.226;2023-12-20T03:54:21;1.80;;;1.67;;
7939;SDS011;4015;48.888;9.226;2023-12-20T03:56:46;1.85;;;1.60;;
7939;SDS011;4015;48.888;9.226;2023-12-20T03:59:12;1.50;;;1.40;;
7939;SDS011;4015;48.888;9.226;2023-12-20T04:01:37;1.48;;;1.20;;
7939;SDS011;4015;48.888;9.226;2023-12-20T04:04:02;1.50;;;1.40;;
7939;SDS011;4015;48.888;9.226;2023-12-20T04:06:28;1.42;;;1.33;;
7939;SDS011;4015;48.888;9.226;2023-12-20T04:08:53;1.42;;;1.30;;
7939;SDS011;4015;48.888;9.226;2023-12-20T04:11:18;1.60;;;1.45;;
7939;SDS011;4015;48.888;9.226;2023-12-20T04:13:44;1.30;;;1.20;;
7939;SDS011;4015;48.888;9.226;2023-12-20T04:16:09;1.38;;;1.25;;
7939;SDS011;4015;48.888;9.226;2023-12-20T04:18:34;1.35;;;1.25;;
7939;SDS011;4015;48.888;9.226;2023-12-20T04:21:00;1.25;;;1.15;;
7939;SDS011;4015;48.888;9.226;2023-12-20T04:23:25;1.45;;;1.35;;
7939;SDS011;4015;48.888;9.226;2023-12-20T04:25:50;1.63;;;1.30;;
7939;SDS011;4015;48.888;9.226;2023-12-20T04:28:15;1.35;;;1.25;;
7939;SDS011;4015;48.888;9.226;2023-12-20T04:30:41;1.27;;;1.17;;
7939;SDS011;4015;48.888;9.226;2023-12-20T04:33:07;1.20;;;1.10;;
7939;SDS011;4015;48.888;9.226;2023-12-20T04:35:32;1.42;;;1.33;;
7939;SDS011;4015;48.888;9.226;2023-12-20T04:37:58;1.38;;;1.27;;
7939;SDS011;4015;48.888;9.226;2023-12-20T04:40:23;1.20;;;1.10;;
7939;SDS011;4015;48.888;9.226;2023-12-20T04:42:48;1.40;;;1.20;;
7939;SDS011;4015;48.888;9.226;2023-12-20T04:45:14;1.60;;;1.50;;
7939;SDS011;4015;48.888;9.226;2023-12-20T04:47:41;1.45;;;1.35;;
7939;SDS011;4015;48.888;9.226;2023-12-20T04:50:07;1.65;;;1.50;;
7939;SDS011;4015;48.888;9.226;2023-12-20T04:52:34;1.70;;;1.40;;
7939;SDS011;4015;48.888;9.226;2023-12-20T04:55:00;1.25;;;1.15;;
7939;SDS011;4015;48.888;9.226;2023-12-20T04:57:25;1.40;;;1.30;;
7939;SDS011;4015;48.888;9.226;2023-12-20T04:59:50;1.25;;;1.10;;
7939;SDS011;4015;48.888;9.226;2023-12-20T05:02:16;1.40;;;1.30;;
7939;SDS011;4015;48.888;9.226;2023-12-20T05:04:41;1.67;;;1.20;;
7939;SDS011;4015;48.888;9.226;2023-12-20T05:07:06;1.30;;;1.20;;
7939;SDS011;4015;48.888;9.226;2023-12-20T05:09:32;1.10;;;1.00;;
7939;SDS011;4015;48.888;9.226;2023-12-20T05:11:57;1.27;;;1.17;;
7939;SDS011;4015;48.888;9.226;2023-12-20T05:14:22;1.52;;;1.30;;
7939;SDS011;4015;48.888;9.226;2023-12-20T05:16:48;1.40;;;1.30;;
7939;SDS011;4015;48.888;9.226;2023-12-20T05:19:13;1.55;;;1.25;;
7939;SDS011;4015;48.888;9.226;2023-12-20T05:21:39;1.33;;;1.20;;
7939;SDS011;4015;48.888;9.226;2023-12-20T05:24:04;1.10;;;1.00;;
7939;SDS011;4015;48.888;9.226;2023-12-20T05:26:30;1.40;;;1.30;;
7939;SDS011;4015;48.888;9.226;2023-12-20T05:28:55;1.33;;;1.23;;
7939;SDS011;4015;48.888;9.226;2023-12-20T05:31:21;1.27;;;1.10;;
7939;SDS011;4015;48.888;9.226;2023-12-20T05:33:46;1.48;;;1.00;;
7939;SDS011;4015;48.888;9.226;2023-12-20T05:36:11;1.30;;;1.20;;
7939;SDS011;4015;48.888;9.226;2023-12-20T05:38:38;1.00;;;0.98;;
7939;SDS011;4015;48.888;9.226;2023-12-20T05:41:04;1.20;;;0.98;;
7939;SDS011;4015;48.888;9.226;2023-12-20T05:43:29;1.45;;;1.10;;
7939;SDS011;4015;48.888;9.226;2023-12-20T05:45:55;1.25;;;1.15;;
7939;SDS011;4015;48.888;9.226;2023-12-20T05:48:20;1.25;;;1.15;;
7939;SDS011;4015;48.888;9.226;2023-12-20T05:50:45;1.13;;;1.02;;
7939;SDS011;4015;48.888;9.226;2023-12-20T05:53:11;1.27;;;1.17;;
7939;SDS011;4015;48.888;9.226;2023-12-20T05:55:36;1.30;;;1.20;;
7939;SDS011;4015;48.888;9.226;2023-12-20T05:58:01;1.25;;;1.15;;
7939;SDS011;4015;48.888;9.226;2023-12-20T06:00:28;1.30;;;1.10;;
7939;SDS011;4015;48.888;9.226;2023-12-20T06:02:53;0.98;;;0.93;;
7939;SDS011;4015;48.888;9.226;2023-12-20T06:05:18;1.45;;;1.35;;
7939;SDS011;4015;48.888;9.226;2023-12-20T06:07:44;1.00;;;0.90;;
7939;SDS011;4015;48.888;9.226;2023-12-20T06:10:12;1.17;;;1.08;;
7939;SDS011;4015;48.888;9.226;2023-12-20T06:12:38;0.90;;;0.90;;
7939;SDS011;4015;48.888;9.226;2023-12-20T06:15:04;1.27;;;1.17;;
7939;SDS011;4015;48.888;9.226;2023-12-20T06:17:30;1.40;;;1.30;;
7939;SDS011;4015;48.888;9.226;2023-12-20T06:19:56;1.20;;;1.10;;
7939;SDS011;4015;48.888;9.226;2023-12-20T06:22:21;1.00;;;0.90;;
7939;SDS011;4015;48.888;9.226;2023-12-20T06:24:47;1.30;;;1.20;;
7939;SDS011;4015;48.888;9.226;2023-12-20T06:27:12;1.00;;;1.00;;
7939;SDS011;4015;48.888;9.226;2023-12-20T06:29:37;1.27;;;1.17;;
7939;SDS011;4015;48.888;9.226;2023-12-20T06:32:03;1.10;;;1.00;;
7939;SDS011;4015;48.888;9.226;2023-12-20T06:34:29;1.13;;;1.02;;
7939;SDS011;4015;48.888;9.226;2023-12-20T06:36:54;1.10;;;1.00;;
7939;SDS011;4015;48.888;9.226;2023-12-20T06:39:19;1.33;;;1.23;;
7939;SDS011;4015;48.888;9.226;2023-12-20T06:41:45;1.02;;;0.95;;
7939;SDS011;4015;48.888;9.226;2023-12-20T06:44:10;0.80;;;0.80;;
7939;SDS011;4015;48.888;9.226;2023-12-20T06:46:35;0.90;;;0.90;;
7939;SDS011;4015;48.888;9.226;2023-12-20T06:49:01;1.30;;;1.00;;
7939;SDS011;4015;48.888;9.226;2023-12-20T06:51:27;1.15;;;1.05;;
7939;SDS011;4015;48.888;9.226;2023-12-20T06:53:53;1.08;;;0.98;;
7939;SDS011;4015;48.888;9.226;2023-12-20T06:56:18;1.20;;;1.10;;
7939;SDS011;4015;48.888;9.226;2023-12-20T06:58:43;0.98;;;0.90;;
7939;SDS011;4015;48.888;9.226;2023-12-20T07:01:13;1.25;;;1.10;;
7939;SDS011;4015;48.888;9.226;2023-12-20T07:03:39;1.10;;;1.00;;
7939;SDS011;4015;48.888;9.226;2023-12-20T07:06:05;1.20;;;1.10;;
7939;SDS011;4015;48.888;9.226;2023-12-20T07:08:30;1.55;;;1.15;;
7939;SDS011;4015;48.888;9.226;2023-12-20T07:10:55;1.30;;;1.20;;
7939;SDS011;4015;48.888;9.226;2023-12-20T07:13:21;0.70;;;0.70;;
7939;SDS011;4015;48.888;9.226;2023-12-20T07:15:47;1.10;;;1.00;;
7939;SDS011;4015;48.888;9.226;2023-12-20T07:18:13;1.25;;;0.90;;
7939;SDS011;4015;48.888;9.226;2023-12-20T07:20:38;0.95;;;0.90;;
7939;SDS011;4015;48.888;9.226;2023-12-20T07:23:04;1.00;;;0.90;;
7939;SDS011;4015;48.888;9.226;2023-12-20T07:25:29;0.80;;;0.80;;
7939;SDS011;4015;48.888;9.226;2023-12-20T07:27:57;1.00;;;0.85;;
7939;SDS011;4015;48.888;9.226;2023-12-20T07:30:22;0.98;;;0.88;;
7939;SDS011;4015;48.888;9.226;2023-12-20T07:32:48;1.00;;;0.90;;
7939;SDS011;4015;48.888;9.226;2023-12-20T07:35:13;1.00;;;0.90;;
7939;SDS011;4015;48.888;9.226;2023-12-20T07:37:38;0.95;;;0.95;;
7939;SDS011;4015;48.888;9.226;2023-12-20T07:40:04;1.13;;;1.02;;
7939;SDS011;4015;48.888;9.226;2023-12-20T07:42:30;1.30;;;1.20;;
7939;SDS011;4015;48.888;9.226;2023-12-20T07:44:55;0.80;;;0.80;;
7939;SDS011;4015;48.888;9.226;2023-12-20T07:47:20;1.17;;;1.08;;
7939;SDS011;4015;48.888;9.226;2023-12-20T07:49:47;0.82;;;0.82;;
7939;SDS011;4015;48.888;9.226;2023-12-20T07:52:13;0.95;;;0.93;;
7939;SDS011;4015;48.888;9.226;2023-12-20T07:54:39;0.90;;;0.90;;
7939;SDS011;4015;48.888;9.226;2023-12-20T07:57:04;0.80;;;0.80;;
7939;SDS011;4015;48.888;9.226;2023-12-20T07:59:30;0.75;;;0.75;;
7939;SDS011;4015;48.888;9.226;2023-12-20T08:01:55;0.80;;;0.80;;
7939;SDS011;4015;48.888;9.226;2023-12-20T08:04:20;0.77;;;0.77;;
7939;SDS011;4015;48.888;9.226;2023-12-20T08:06:46;0.90;;;0.90;;
7939;SDS011;4015;48.888;9.226;2023-12-20T08:09:11;0.90;;;0.90;;
7939;SDS011;4015;48.888;9.226;2023-12-20T08:11:36;0.98;;;0.98;;
7939;SDS011;4015;48.888;9.226;2023-12-20T08:14:01;0.98;;;0.90;;
7939;SDS011;4015;48.888;9.226;2023-12-20T08:16:27;1.05;;;0.95;;
7939;SDS011;4015;48.888;9.226;2023-12-20T08:18:52;0.93;;;0.93;;
7939;SDS011;4015;48.888;9.226;2023-12-20T08:21:17;1.00;;;0.90;;
7939;SDS011;4015;48.888;9.226;2023-12-20T08:23:45;1.00;;;0.90;;
7939;SDS011;4015;48.888;9.226;2023-12-20T08:26:11;0.80;;;0.80;;
7939;SDS011;4015;48.888;9.226;2023-12-20T08:28:36;0.80;;;0.80;;
7939;SDS011;4015;48.888;9.226;2023-12-20T08:31:02;1.02;;;1.00;;
7939;SDS011;4015;48.888;9.226;2023-12-20T08:33:27;0.85;;;0.80;;
7939;SDS011;4015;48.888;9.226;2023-12-20T08:35:53;0.80;;;0.80;;
7939;SDS011;4015;48.888;9.226;2023-12-20T08:38:18;1.25;;;1.10;;
7939;SDS011;4015;48.888;9.226;2023-12-20T08:40:43;0.88;;;0.80;;
7939;SDS011;4015;48.888;9.226;2023-12-20T08:43:09;0.88;;;0.88;;
7939;SDS011;4015;48.888;9.226;2023-12-20T08:45:34;1.10;;;1.00;;
7939;SDS011;4015;48.888;9.226;2023-12-20T08:48:00;0.80;;;0.80;;
7939;SDS011;4015;48.888;9.226;2023-12-20T08:50:25;0.80;;;0.80;;
7939;SDS011;4015;48.888;9.226;2023-12-20T08:52:51;0.80;;;0.80;;
7939;SDS011;4015;48.888;9.226;2023-12-20T08:55:16;0.85;;;0.82;;
7939;SDS011;4015;48.888;9.226;2023-12-20T08:57:43;1.05;;;0.95;;
7939;SDS011;4015;48.888;9.226;2023-12-20T09:00:09;1.10;;;1.00;;
7939;SDS011;4015;48.888;9.226;2023-12-20T09:02:34;1.13;;;1.02;;
7939;SDS011;4015;48.888;9.226;2023-12-20T09:05:02;1.15;;;1.05;;
7939;SDS011;4015;48.888;9.226;2023-12-20T09:07:28;1.15;;;0.85;;
7939;SDS011;4015;48.888;9.226;2023-12-20T09:09:56;1.00;;;0.90;;
7939;SDS011;4015;48.888;9.226;2023-12-20T09:12:22;0.65;;;0.65;;
7939;SDS011;4015;48.888;9.226;2023-12-20T09:14:48;0.70;;;0.70;;
7939;SDS011;4015;48.888;9.226;2023-12-20T09:17:14;0.90;;;0.80;;
7939;SDS011;4015;48.888;9.226;2023-12-20T09:19:41;0.80;;;0.80;;
7939;SDS011;4015;48.888;9.226;2023-12-20T09:22:06;1.10;;;1.00;;
7939;SDS011;4015;48.888;9.226;2023-12-20T09:24:32;0.80;;;0.70;;
7939;SDS011;4015;48.888;9.226;2023-12-20T09:26:58;0.90;;;0.90;;
7939;SDS011;4015;48.888;9.226;2023-12-20T09:29:23;0.90;;;0.90;;
7939;SDS011;4015;48.888;9.226;2023-12-20T09:31:49;1.02;;;0.93;;
7939;SDS011;4015;48.888;9.226;2023-12-20T09:34:15;1.02;;;0.93;;
7939;SDS011;4015;48.888;9.226;2023-12-20T09:36:40;0.80;;;0.80;;
7939;SDS011;4015;48.888;9.226;2023-12-20T09:39:11;0.80;;;0.80;;
7939;SDS011;4015;48.888;9.226;2023-12-20T09:41:38;0.70;;;0.70;;
7939;SDS011;4015;48.888;9.226;2023-12-20T09:44:08;0.93;;;0.90;;
7939;SDS011;4015;48.888;9.226;2023-12-20T09:46:40;0.80;;;0.70;;
7939;SDS011;4015;48.888;9.226;2023-12-20T09:49:09;0.60;;;0.60;;
7939;SDS011;4015;48.888;9.226;2023-12-20T09:51:35;0.90;;;0.90;;
7939;SDS011;4015;48.888;9.226;2023-12-20T09:54:02;0.73;;;0.73;;
7939;SDS011;4015;48.888;9.226;2023-12-20T09:56:28;0.75;;;0.75;;
7939;SDS011;4015;48.888;9.226;2023-12-20T09:58:54;0.80;;;0.80;;
7939;SDS011;4015;48.888;9.226;2023-12-20T10:01:20;0.70;;;0.70;;
7939;SDS011;4015;48.888;9.226;2023-12-20T10:03:46;0.70;;;0.70;;
7939;SDS011;4015;48.888;9.226;2023-12-20T10:06:11;0.82;;;0.82;;
7939;SDS011;4015;48.888;9.226;2023-12-20T10:08:37;0.75;;;0.75;;
7939;SDS011;4015;48.888;9.226;2023-12-20T10:11:03;0.80;;;0.80;;
7939;SDS011;4015;48.888;9.226;2023-12-20T10:13:29;0.70;;;0.70;;
7939;SDS011;4015;48.888;9.226;2023-12-20T10:15:57;0.60;;;0.60;;
7939;SDS011;4015;48.888;9.226;2023-12-20T10:18:22;0.70;;;0.70;;
7939;SDS011;4015;48.888;9.226;2023-12-20T10:20:48;0.70;;;0.70;;
7939;SDS011;4015;48.888;9.226;2023-12-20T10:23:13;0.60;;;0.60;;
7939;SDS011;4015;48.888;9.226;2023-12-20T10:25:40;0.75;;;0.75;;
7939;SDS011;4015;48.888;9.226;2023-12-20T10:28:10;0.70;;;0.70;;
7939;SDS011;4015;48.888;9.226;2023-12-20T10:30:42;0.88;;;0.80;;
7939;SDS011;4015;48.888;9.226;2023-12-20T10:33:07;0.90;;;0.80;;
7939;SDS011;4015;48.888;9.226;2023-12-20T10:35:34;0.73;;;0.63;;
7939;SDS011;4015;48.888;9.226;2023-12-20T10:38:01;1.00;;;0.90;;
7939;SDS011;4015;48.888;9.226;2023-12-20T10:40:29;0.82;;;0.70;;
7939;SDS011;4015;48.888;9.226;2023-12-20T10:42:55;0.98;;;0.88;;
7939;SDS011;4015;48.888;9.226;2023-12-20T10:45:21;0.80;;;0.80;;
7939;SDS011;4015;48.888;9.226;2023-12-20T10:47:48;0.80;;;0.80;;
7939;SDS011;4015;48.888;9.226;2023-12-20T10:50:14;0.80;;;0.80;;
7939;SDS011;4015;48.888;9.226;2023-12-20T10:52:40;0.80;;;0.80;;
7939;SDS011;4015;48.888;9.226;2023-12-20T10:55:07;0.80;;;0.75;;
7939;SDS011;4015;48.888;9.226;2023-12-20T10:57:33;0.70;;;0.70;;
7939;SDS011;4015;48.888;9.226;2023-12-20T11:00:01;0.65;;;0.65;;
7939;SDS011;4015;48.888;9.226;2023-12-20T11:02:32;0.75;;;0.70;;
7939;SDS011;4015;48.888;9.226;2023-12-20T11:07:35;0.70;;;0.70;;
7939;SDS011;4015;48.888;9.226;2023-12-20T11:12:39;0.73;;;0.73;;
7939;SDS011;4015;48.888;9.226;2023-12-20T11:15:13;0.80;;;0.80;;
7939;SDS011;4015;48.888;9.226;2023-12-20T11:17:40;0.65;;;0.65;;
7939;SDS011;4015;48.888;9.226;2023-12-20T11:20:06;0.80;;;0.70;;
7939;SDS011;4015;48.888;9.226;2023-12-20T11:22:35;0.85;;;0.82;;
7939;SDS011;4015;48.888;9.226;2023-12-20T11:27:31;0.90;;;0.70;;
7939;SDS011;4015;48.888;9.226;2023-12-20T11:29:58;1.25;;;1.15;;
7939;SDS011;4015;48.888;9.226;2023-12-20T11:34:50;0.88;;;0.75;;
7939;SDS011;4015;48.888;9.226;2023-12-20T11:37:29;0.77;;;0.73;;
7939;SDS011;4015;48.888;9.226;2023-12-20T11:40:00;0.95;;;0.70;;
7939;SDS011;4015;48.888;9.226;2023-12-20T11:42:33;0.65;;;0.65;;
7939;SDS011;4015;48.888;9.226;2023-12-20T11:45:02;0.60;;;0.60;;
7939;SDS011;4015;48.888;9.226;2023-12-20T11:47:28;0.88;;;0.70;;
7939;SDS011;4015;48.888;9.226;2023-12-20T11:49:56;0.80;;;0.80;;
7939;SDS011;4015;48.888;9.226;2023-12-20T11:52:21;0.80;;;0.70;;
7939;SDS011;4015;48.888;9.226;2023-12-20T11:54:46;1.05;;;0.90;;
7939;SDS011;4015;48.888;9.226;2023-12-20T11:57:12;0.95;;;0.77;;
7939;SDS011;4015;48.888;9.226;2023-12-20T11:59:38;0.70;;;0.70;;
7939;SDS011;4015;48.888;9.226;2023-12-20T12:02:03;0.82;;;0.82;;
7939;SDS011;4015;48.888;9.226;2023-12-20T12:04:29;0.70;;;0.70;;
7939;SDS011;4015;48.888;9.226;2023-12-20T12:06:54;0.70;;;0.70;;
7939;SDS011;4015;48.888;9.226;2023-12-20T12:09:19;0.93;;;0.73;;
7939;SDS011;4015;48.888;9.226;2023-12-20T12:11:44;0.70;;;0.68;;
7939;SDS011;4015;48.888;9.226;2023-12-20T12:14:10;0.60;;;0.60;;
7939;SDS011;4015;48.888;9.226;2023-12-20T12:16:36;0.70;;;0.70;;
7939;SDS011;4015;48.888;9.226;2023-12-20T12:19:01;0.60;;;0.60;;
7939;SDS011;4015;48.888;9.226;2023-12-20T12:21:26;0.82;;;0.80;;
7939;SDS011;4015;48.888;9.226;2023-12-20T12:23:52;0.70;;;0.70;;
7939;SDS011;4015;48.888;9.226;2023-12-20T12:26:18;0.82;;;0.77;;
7939;SDS011;4015;48.888;9.226;2023-12-20T12:28:43;0.82;;;0.80;;
7939;SDS011;4015;48.888;9.226;2023-12-20T12:31:12;0.77;;;0.77;;
7939;SDS011;4015;48.888;9.226;2023-12-20T12:33:40;0.80;;;0.70;;
7939;SDS011;4015;48.888;9.226;2023-12-20T12:36:06;0.90;;;0.80;;
7939;SDS011;4015;48.888;9.226;2023-12-20T12:38:32;0.60;;;0.60;;
7939;SDS011;4015;48.888;9.226;2023-12-20T12:40:59;0.80;;;0.77;;
7939;SDS011;4015;48.888;9.226;2023-12-20T12:43:25;0.70;;;0.70;;
7939;SDS011;4015;48.888;9.226;2023-12-20T12:45:50;0.60;;;0.60;;
7939;SDS011;4015;48.888;9.226;2023-12-20T12:48:16;0.90;;;0.70;;
7939;SDS011;4015;48.888;9.226;2023-12-20T12:50:41;0.60;;;0.60;;
7939;SDS011;4015;48.888;9.226;2023-12-20T12:53:06;0.98;;;0.88;;
7939;SDS011;4015;48.888;9.226;2023-12-20T12:55:32;1.23;;;0.70;;
7939;SDS011;4015;48.888;9.226;2023-12-20T12:57:59;0.82;;;0.60;;
7939;SDS011;4015;48.888;9.226;2023-12-20T13:00:24;1.52;;;0.73;;
7939;SDS011;4015;48.888;9.226;2023-12-20T13:02:51;0.63;;;0.63;;
7939;SDS011;4015;48.888;9.226;2023-12-20T13:05:16;0.93;;;0.60;;
7939;SDS011;4015;48.888;9.226;2023-12-20T13:07:42;0.73;;;0.73;;
7939;SDS011;4015;48.888;9.226;2023-12-20T13:10:10;1.13;;;0.70;;
7939;SDS011;4015;48.888;9.226;2023-12-20T13:12:35;2.30;;;0.98;;
7939;SDS011;4015;48.888;9.226;2023-12-20T13:15:01;0.98;;;0.70;;
7939;SDS011;4015;48.888;9.226;2023-12-20T13:17:27;1.05;;;0.88;;
7939;SDS011;4015;48.888;9.226;2023-12-20T13:19:53;0.70;;;0.60;;
7939;SDS011;4015;48.888;9.226;2023-12-20T13:22:18;0.70;;;0.70;;
7939;SDS011;4015;48.888;9.226;2023-12-20T13:24:43;0.70;;;0.68;;
7939;SDS011;4015;48.888;9.226;2023-12-20T13:27:09;1.25;;;0.70;;
7939;SDS011;4015;48.888;9.226;2023-12-20T13:29:35;0.70;;;0.60;;
7939;SDS011;4015;48.888;9.226;2023-12-20T13:32:00;0.80;;;0.80;;
7939;SDS011;4015;48.888;9.226;2023-12-20T13:34:26;0.98;;;0.90;;
7939;SDS011;4015;48.888;9.226;2023-12-20T13:36:51;1.35;;;0.80;;
7939;SDS011;4015;48.888;9.226;2023-12-20T13:39:16;0.50;;;0.50;;
7939;SDS011;4015;48.888;9.226;2023-12-20T13:41:42;0.63;;;0.63;;
7939;SDS011;4015;48.888;9.226;2023-12-20T13:44:07;0.98;;;0.80;;
7939;SDS011;4015;48.888;9.226;2023-12-20T13:46:33;0.82;;;0.60;;
7939;SDS011;4015;48.888;9.226;2023-12-20T13:48:58;1.58;;;0.80;;
7939;SDS011;4015;48.888;9.226;2023-12-20T13:51:24;1.60;;;0.60;;
7939;SDS011;4015;48.888;9.226;2023-12-20T13:53:49;0.60;;;0.60;;
7939;SDS011;4015;48.888;9.226;2023-12-20T13:56:15;0.70;;;0.70;;
7939;SDS011;4015;48.888;9.226;2023-12-20T13:58:41;0.70;;;0.65;;
7939;SDS011;4015;48.888;9.226;2023-12-20T14:01:09;1.73;;;0.80;;
7939;SDS011;4015;48.888;9.226;2023-12-20T14:03:35;0.80;;;0.80;;
7939;SDS011;4015;48.888;9.226;2023-12-20T14:06:00;1.08;;;0.70;;
7939;SDS011;4015;48.888;9.226;2023-12-20T14:08:26;0.65;;;0.65;;
7939;SDS011;4015;48.888;9.226;2023-12-20T14:10:52;0.55;;;0.50;;
7939;SDS011;4015;48.888;9.226;2023-12-20T14:13:17;0.85;;;0.80;;
7939;SDS011;4015;48.888;9.226;2023-12-20T14:15:42;1.45;;;0.70;;
7939;SDS011;4015;48.888;9.226;2023-12-20T14:18:08;1.10;;;0.77;;
7939;SDS011;4015;48.888;9.226;2023-12-20T14:20:33;1.13;;;0.70;;
7939;SDS011;4015;48.888;9.226;2023-12-20T14:23:00;0.50;;;0.50;;
7939;SDS011;4015;48.888;9.226;2023-12-20T14:25:26;0.60;;;0.60;;
7939;SDS011;4015;48.888;9.226;2023-12-20T14:27:51;1.15;;;0.75;;
7939;SDS011;4015;48.888;9.226;2023-12-20T14:30:17;0.70;;;0.65;;
7939;SDS011;4015;48.888;9.226;2023-12-20T14:32:42;1.05;;;0.93;;
7939;SDS011;4015;48.888;9.226;2023-12-20T14:35:07;0.82;;;0.80;;
7939;SDS011;4015;48.888;9.226;2023-12-20T14:37:34;0.70;;;0.65;;
7939;SDS011;4015;48.888;9.226;2023-12-20T14:40:00;0.93;;;0.70;;
7939;SDS011;4015;48.888;9.226;2023-12-20T14:42:25;0.95;;;0.68;;
7939;SDS011;4015;48.888;9.226;2023-12-20T14:44:50;0.60;;;0.60;;
7939;SDS011;4015;48.888;9.226;2023-12-20T14:47:17;0.70;;;0.70;;
7939;SDS011;4015;48.888;9.226;2023-12-20T14:49:42;0.60;;;0.60;;
7939;SDS011;4015;48.888;9.226;2023-12-20T14:52:08;0.80;;;0.70;;
7939;SDS011;4015;48.888;9.226;2023-12-20T14:54:36;0.75;;;0.70;;
7939;SDS011;4015;48.888;9.226;2023-12-20T14:57:02;0.77;;;0.68;;
7939;SDS011;4015;48.888;9.226;2023-12-20T14:59:27;0.75;;;0.57;;
7939;SDS011;4015;48.888;9.226;2023-12-20T15:01:52;1.08;;;0.80;;
7939;SDS011;4015;48.888;9.226;2023-12-20T15:04:18;0.70;;;0.70;;
7939;SDS011;4015;48.888;9.226;2023-12-20T15:06:43;0.82;;;0.82;;
7939;SDS011;4015;48.888;9.226;2023-12-20T15:09:09;1.48;;;0.82;;
7939;SDS011;4015;48.888;9.226;2023-12-20T15:11:35;0.90;;;0.70;;
7939;SDS011;4015;48.888;9.226;2023-12-20T15:14:01;1.08;;;0.68;;
7939;SDS011;4015;48.888;9.226;2023-12-20T15:16:26;0.65;;;0.65;;